Hayfield, MN

3:16 PM CDT on June 03, 2015 (GMT -0500)
Dodge Center | | Change Station
CLOSE
Current Station
Airport
Location: Dodge Center,
Elevation: 1306 ft
Nearby Weather Stations

Elev 1306 ft 44.02 °N, 92.83 °W | Updated 22 minutes ago

Overcast
Overcast
72 °F
Feels Like 72 °F
N
15
Wind Variable Wind from SSW

Today
High -- | Low -- °F
--% Chance of Precip.
Yesterday
High -- | Low -- °F
Precip. -- in
5:31 AM 8:48 PM
Full, 98% visible
Pressure 29.88 in
Visibility 10.0 miles
Clouds Overcast 3900 ft
Dew Point 61 °F
Humidity 69%
Rainfall 0.01 in
Snow Depth Not available.
UV 3 out of 12
Pollen 3.70 out of 12
Air Quality Not available.
Flu Activity Sporadic
METAR KTOB 031954Z AUTO 21013KT 10SM OVC039 22/16 A2988 RMK AO2

More Conditions Fewer Conditions

Pressure 29.88 in
Visibility 10.0 miles
Clouds Overcast 3900 ft
Dew Point 61 °F
Humidity 69%
Rainfall 0.01 in
Snow Depth Not available.
UV 3 out of 12
Pollen 3.70 out of 12
Air Quality Not available.
Flu Activity Sporadic
METAR KTOB 031954Z AUTO 21013KT 10SM OVC039 22/16 A2988 RMK AO2

More Conditions Fewer Conditions

10-Day Weather Forecast

×

Almanac

Astronomy

Jun. 03, 2015 Rise Set
Actual Time
Civil Twilight
Nautical Twilight
Astronomical Twilight
Moon
Length of Visible Light
Length of Day
Tomorrow will be .
, % of the Moon is Illuminated

Today's Extremes

State Highs State Lows

Community

WunderPhotos

Upload Photos

1,826,277 photos uploaded!

WunderBlogs® & News

Nearby

Air Quality

  Air Quality AQ Index Pollutant
Not available.

Snow Depth

Station Depth Elevation

Earthquake Activity

City Distance Mag. Time & Date
Minimum magnitude displayed is 2.5.

Coastal Water Temperatures

Place Temperature

Stations

Nearby Weather Stations

Station Location Temp. Windchill Dew Point Humidity Wind Precip. Elev Updated Type